LFRU/MXN METAR and TAF weather

Enter ICAO airport designator
Station Type Date Time Source
LFRU METAR 2020/04/01 20:00 UTC NOAA

LFRU 012000Z AUTO 04008KT CAVOK 05/01 Q1020


Station Type Date Time Source
LFRU Decoded METAR 2020/04/01 20:00 UTC NOAA

Morlaix / Ploujean, France (LFRU) 48-36N 003-49W
Apr 01, 2020 - 04:00 PM EDT / 2020.04.01 2000 UTC
Wind: from the NE (040 degrees) at 9 MPH (8 KT):0
Visibility: greater than 7 mile(s):0
Temperature: 41 F (5 C)
Dew Point: 33 F (1 C)
Relative Humidity: 75%
Pressure (altimeter): 30.12 in. Hg (1020 hPa)
ob: LFRU 012000Z AUTO 04008KT CAVOK 05/01 Q1020
cycle: 20

Station Type Date Time Source
LFRU TAF UTC NOAA

Error!

Example: see airport list